PDT,Max TemperatureF,Mean TemperatureF,Min TemperatureF,Max Dew PointF,MeanDew PointF,Min DewpointF,Max Humidity, Mean Humidity, Min Humidity, Max Sea Level PressureIn, Mean Sea Level PressureIn, Min Sea Level PressureIn, Max VisibilityMiles, Mean VisibilityMiles, Min VisibilityMiles, Max Wind SpeedMPH, Mean Wind SpeedMPH, Max Gust SpeedMPH,PrecipitationIn, CloudCover, Events, WindDirDegrees
2013-3-1,75,57,38,46,42,37,100,67,33,30.47,30.38,30.24,10,8,1,9,1,13,0.00,2,,8
2013-3-2,69,56,42,50,45,40,92,67,42,30.27,30.16,30.07,10,10,10,6,2,7,0.00,0,,328
2013-3-3,68,56,44,47,43,39,93,68,42,30.08,30.05,29.99,10,10,10,14,2,20,0.00,2,,334
2013-3-4,65,51,36,44,39,35,92,68,43,30.14,30.08,30.01,10,9,0,14,3,18,0.00,2,Fog,162
2013-3-5,51,46,41,45,41,36,93,82,71,30.05,29.88,29.69,10,8,3,20,8,28,1.09,8,Rain,154
2013-3-6,53,45,36,45,38,34,92,73,54,30.03,29.93,29.70,10,9,6,23,6,40,0.27,5,Rain,172
2013-3-7,55,45,35,39,35,31,92,67,41,30.01,29.96,29.88,10,8,1,8,2,12,0.00,6,,329
2013-3-8,60,47,33,39,35,30,96,68,40,30.08,29.94,29.87,10,10,10,18,4,28,0.00,0,,328
2013-3-9,69,51,33,38,35,31,96,63,30,30.35,30.27,30.10,10,10,10,13,2,16,0.00,0,,319
2013-3-10,73,53,33,41,37,32,96,62,27,30.39,30.31,30.22,10,10,10,6,0,8,0.00,0,,325
2013-3-11,75,57,38,45,41,36,89,61,33,30.28,30.20,30.09,10,10,10,13,2,16,0.00,0,,337
2013-3-12,78,59,40,50,44,38,89,60,31,30.17,30.12,30.06,10,10,10,8,1,12,0.00,0,,348
2013-3-13,80,60,40,50,44,38,89,58,27,30.19,30.13,30.05,10,10,10,13,1,16,0.00,0,,23
2013-3-14,72,59,45,47,40,27,92,56,20,30.18,30.14,30.11,10,10,10,14,2,18,0.00,0,,319
2013-3-15,75,59,43,46,43,39,89,62,35,30.17,30.12,30.07,10,10,10,17,3,24,0.00,0,,350
2013-3-16,72,56,39,44,39,35,93,60,27,30.16,30.10,30.06,10,10,10,22,7,30,0.00,0,,328
2013-3-17,68,53,37,40,37,33,86,58,29,30.18,30.12,30.06,10,10,10,12,3,15,0.00,0,,345
2013-3-18,70,54,37,39,35,30,92,58,24,30.14,30.08,30.02,10,10,10,12,2,18,T,2,Rain,339
2013-3-19,54,48,41,49,42,35,93,74,54,30.13,30.09,30.07,10,9,6,10,2,15,0.34,6,Rain,130
2013-3-20,59,53,46,54,47,39,93,82,71,30.16,30.07,30.02,10,7,2,15,6,22,0.34,7,Rain,165
2013-3-21,62,50,37,41,37,33,92,64,36,30.17,30.13,30.05,10,10,10,16,5,21,0.00,2,,340
2013-3-22,63,49,34,36,33,27,89,58,27,30.18,30.13,30.09,10,10,10,14,2,18,0.00,0,,331
2013-3-23,70,52,34,36,34,30,96,62,28,30.17,30.11,30.04,10,10,10,13,2,16,0.00,0,,348
2013-3-24,74,56,37,42,38,35,92,61,29,30.11,30.04,29.95,10,10,10,13,2,16,0.00,0,,328
2013-3-25,63,50,36,43,39,34,92,69,46,30.01,29.97,29.92,10,10,10,12,2,15,0.00,2,,8
2013-3-26,69,55,40,46,41,37,92,65,37,30.00,29.96,29.90,10,10,10,9,1,13,0.00,4,,330
2013-3-27,63,56,48,50,47,44,89,75,60,29.99,29.95,29.93,10,9,2,12,3,16,0.00,8,,159
2013-3-28,62,56,50,50,48,46,93,75,56,30.09,30.04,29.99,10,10,10,13,3,17,0.01,6,,152
2013-3-29,77,60,42,51,45,39,96,65,33,30.13,30.08,30.00,10,8,0,13,2,16,0.00,1,Fog,180
2013-3-30,68,61,54,53,51,46,93,76,58,30.04,30.02,29.98,10,10,10,16,4,25,0.01,4,Rain,157
2013-3-31,65,59,52,52,50,47,93,75,56,30.07,30.03,29.99,10,10,5,18,7,25,0.03,6,Rain,157